METAR stanice u blizini

 

LYBE - Beograd / Surčin, Srbija
Ažurirano: 16/06/2024 18:30
Vedro
Vedro
 Pravac vetra S
Vetar: S 9 km/h
Temperatura: 29°C
Tačka rose: 12°C
Vlažnost: 35%
Pritisak: 1011 hPa
Pregled: Vedro
Vidljivost: greater than 10 km
2024/06/16 16:30 LYBE 161630Z 36005KT 330V050 CAVOK 29/12 Q1011 NOSIG
LYBT - Beograd / Batajnica, Srbija
Ažurirano: 16/06/2024 18:30
Vedro
Vedro
 Pravac vetra SZ
Vetar: SZ 6 km/h
Temperatura: 30°C
Heat Index: 29°C
Tačka rose: 15°C
Vlažnost: 40%
Pritisak: 1010 hPa
Pregled: Vedro
Vidljivost: greater than 10 km
2024/06/16 16:30 LYBT 161630Z 32003KT 290V360 CAVOK 30/15 Q1010 NOSIG
LYVR - Vršac, Srbija
Ažurirano: 16/06/2024 18:30
Vedro
Vedro
 Pravac vetra ZSZ
Vetar: ZSZ 9 km/h
Temperatura: 30°C
Tačka rose: 13°C
Vlažnost: 35%
Pritisak: 1010 hPa
Pregled: Vedro
Vidljivost: greater than 10 km
2024/06/16 16:30 LYVR 161630Z AUTO 29005KT 240V310 CAVOK 30/13 Q1010
 
LYKV - Lađevci, Srbija
Ažurirano: 16/06/2024 18:30
Few Clouds
Few Clouds
 Pravac vetra ISI
Vetar: ISI 11 km/h
Temperatura: 29°C
Heat Index: 28°C
Tačka rose: 14°C
Vlažnost: 40%
Pritisak: 1010 hPa
Oblaci: Few Clouds
Vidljivost: 10 km
Cloud details: Few Clouds 1219 m
2024/06/16 16:30 LYKV 161630Z 06006KT 030V110 9999 FEW040 29/14 Q1010 NOSIG
LYNI - Niš, Srbija
Ažurirano: 16/06/2024 18:30
Vedro
Vedro
 Pravac vetra SZ
Vetar: SZ 9 km/h
Temperatura: 30°C
Heat Index: 30°C
Tačka rose: 16°C
Vlažnost: 43%
Pritisak: 1011 hPa
Pregled: Vedro
Vidljivost: greater than 10 km
2024/06/16 16:30 LYNI 161630Z 31005KT 280V340 CAVOK 30/16 Q1011 NOSIG
BKPR - Priština, Srbija
Ažurirano: 16/06/2024 18:30
Vedro
Vedro
 Pravac vetra SZ
Vetar: SZ 7 km/h
Temperatura: 29°C
Tačka rose: 13°C
Vlažnost: 37%
Pritisak: 1012 hPa
Pregled: Vedro
Vidljivost: greater than 10 km
2024/06/16 16:30 BKPR 161630Z 32004KT CAVOK 29/13 Q1012 NOSIG
 
LHPP - Pecs / Pogany, Hungary
Ažurirano: 16/06/2024 18:15
Vedro
Vedro
 Pravac vetra SZ
Vetar: SZ 9 km/h
Temperatura: 25°C
Tačka rose: 16°C
Vlažnost: 57%
Pritisak: 1011 hPa
Pregled: Vedro
Vidljivost: greater than 10 km
2024/06/16 16:15 LHPP 161615Z AUTO 32005KT CAVOK 25/16 Q1011
LHUD - Szeged, Hungary
Ažurirano: 04/07/2019 01:45
NOT Current
Vedro
Vedro
 Pravac vetra S
Vetar: S 7 km/h
Temperatura: 18°C
Tačka rose: 13°C
Vlažnost: 73%
Pritisak: 1019 hPa
Pregled: Vedro
Vidljivost: greater than 10 km
2019/07/03 23:45 LHUD 032345Z 35004KT CAVOK 18/13 Q1019
LRTR - Timisoara, Romania
Ažurirano: 16/06/2024 18:30
Vedro
Vedro
 Pravac vetra Z
Vetar: Z 15 km/h
Temperatura: 28°C
Heat Index: 28°C
Tačka rose: 15°C
Vlažnost: 45%
Pritisak: 1010 hPa
Pregled: Vedro
Vidljivost: greater than 10 km
2024/06/16 16:30 LRTR 161630Z 26008KT CAVOK 28/15 Q1010
 
LRCV - Craiova, Romania
Ažurirano: 16/06/2024 18:30
Vedro
Vedro
 Pravac vetra SSZ
Vetar: SSZ 11 km/h
Temperatura: 29°C
Tačka rose: 13°C
Vlažnost: 37%
Pritisak: 1010 hPa
Pregled: Vedro
Vidljivost: greater than 10 km
2024/06/16 16:30 LRCV 161630Z 33006KT CAVOK 29/13 Q1010
LBSF - Sofia, Bulgaria
Ažurirano: 16/06/2024 18:30
Vedro
Vedro
 Pravac vetra SZ
Vetar: SZ 9 km/h
Temperatura: 28°C
Tačka rose: 11°C
Vlažnost: 35%
Pritisak: 1012 hPa
Oblaci: Vedro
Vidljivost: 10 km
2024/06/16 16:30 LBSF 161630Z AUTO 31005KT 270V350 9999 NCD 28/11 Q1012 NOSIG
LWSK - Skoplje, Makedonija
Ažurirano: 16/06/2024 18:20
Vedro
Vedro
 Pravac vetra SI
Vetar: SI 9 km/h
Temperatura: 33°C
Tačka rose: 16°C
Vlažnost: 36%
Pritisak: 1010 hPa
Pregled: Vedro
Vidljivost: greater than 10 km
2024/06/16 16:20 LWSK 161620Z 05005KT 020V090 CAVOK 33/16 Q1010 NOSIG
 
LYPG - Podgorica, Crna Gora
Ažurirano: 16/06/2024 18:30
Vedro
Vedro
 Pravac vetra JI
Vetar: JI 13 km/h
Temperatura: 30°C
Heat Index: 31°C
Tačka rose: 17°C
Vlažnost: 46%
Pritisak: 1011 hPa
Pregled: Vedro
Vidljivost: greater than 10 km
2024/06/16 16:30 LYPG 161630Z 14007KT 110V170 CAVOK 30/17 Q1011 NOSIG
LQSA - Sarajevo, Bosna i Hercegovina
Ažurirano: 16/06/2024 18:30
Few Clouds
Few Clouds
 Pravac vetra Z
Vetar: Z 19 km/h
Temperatura: 28°C
Tačka rose: 12°C
Vlažnost: 37%
Pritisak: 1011 hPa
Oblaci: Few Clouds
Vidljivost: 10 km
Cloud details: Few Clouds 1524 m
2024/06/16 16:30 LQSA 161630Z 27010KT 230V290 9999 FEW050 28/12 Q1011 NOSIG
LDOS - Osijek, Hrvatksa
Ažurirano: 16/06/2024 18:30
Vedro
Vedro
 Pravac vetra S
Vetar: S 11 km/h
Temperatura: 27°C
Heat Index: 28°C
Tačka rose: 16°C
Vlažnost: 51%
Pritisak: 1011 hPa
Pregled: Vedro
Vidljivost: greater than 10 km
2024/06/16 16:30 LDOS 161630Z 36006KT 330V030 CAVOK 27/16 Q1011